createdAt,value
2022-08-31T00:02:41.831Z,98785.53
2022-08-31T00:05:14.109Z,98775.87
2022-08-31T00:07:46.268Z,98784.40
2022-08-31T00:10:31.809Z,98778.55
2022-08-31T00:12:57.486Z,98786.91
2022-08-31T00:15:30.361Z,98787.41
2022-08-31T00:18:02.721Z,98791.73
2022-08-31T00:20:35.073Z,98786.40
2022-08-31T00:23:09.696Z,98782.56
2022-08-31T00:25:44.425Z,98791.90
2022-08-31T00:28:18.130Z,98795.08
2022-08-31T00:30:50.382Z,98789.23
2022-08-31T00:33:22.119Z,98793.39
2022-08-31T00:35:54.787Z,98786.40
2022-08-31T00:38:26.830Z,98793.74
2022-08-31T00:41:00.115Z,98791.41
2022-08-31T00:43:44.020Z,98786.36
2022-08-31T00:46:18.879Z,98792.05
2022-08-31T00:48:53.943Z,98792.86
2022-08-31T00:51:28.308Z,98794.19
2022-08-31T00:54:01.415Z,98785.70
2022-08-31T00:56:34.956Z,98794.02
2022-08-31T00:59:07.329Z,98791.34
2022-08-31T01:01:39.760Z,98785.37
2022-08-31T01:04:11.780Z,98797.84
2022-08-31T01:06:44.617Z,98787.02
2022-08-31T01:09:17.744Z,98781.84
2022-08-31T01:11:50.577Z,98786.36
2022-08-31T01:14:23.024Z,98786.55
2022-08-31T01:16:56.738Z,98780.84
2022-08-31T01:19:37.865Z,98776.19
2022-08-31T01:22:33.641Z,98785.02
2022-08-31T01:25:06.738Z,98779.16
2022-08-31T01:27:40.340Z,98774.00
2022-08-31T01:30:14.646Z,98773.84
2022-08-31T01:32:45.976Z,98771.00
2022-08-31T01:35:17.760Z,98781.36
2022-08-31T01:37:50.168Z,98773.17
2022-08-31T01:40:24.907Z,98771.98
2022-08-31T01:42:57.256Z,98764.31
2022-08-31T01:45:29.587Z,98777.95
2022-08-31T01:48:02.707Z,98770.62
2022-08-31T01:50:35.772Z,98767.95
2022-08-31T01:53:07.768Z,98772.78
2022-08-31T01:55:39.925Z,98763.61
2022-08-31T01:58:12.183Z,98762.27
2022-08-31T02:00:46.149Z,98770.56
2022-08-31T02:03:18.676Z,98761.23
2022-08-31T02:05:50.942Z,98766.55
2022-08-31T02:08:23.351Z,98762.67
2022-08-31T02:10:55.331Z,98760.36
2022-08-31T02:13:27.439Z,98753.50
2022-08-31T02:15:59.775Z,98761.83
2022-08-31T02:18:32.019Z,98749.33
2022-08-31T02:21:04.972Z,98758.82
2022-08-31T02:23:36.953Z,98756.66
2022-08-31T02:26:09.531Z,98752.81
2022-08-31T02:28:42.249Z,98755.62
2022-08-31T02:31:15.026Z,98758.44
2022-08-31T02:33:48.589Z,98755.12
2022-08-31T02:36:20.825Z,98756.28
2022-08-31T02:38:52.820Z,98757.09
2022-08-31T02:41:25.212Z,98755.44
2022-08-31T02:43:57.172Z,98756.89
2022-08-31T02:46:29.355Z,98749.07
2022-08-31T02:49:03.502Z,98752.58
2022-08-31T02:51:35.454Z,98749.22
2022-08-31T02:54:10.279Z,98754.39
2022-08-31T02:56:42.867Z,98748.10
2022-08-31T02:59:15.001Z,98749.77
2022-08-31T03:01:50.079Z,98747.60
2022-08-31T03:04:22.193Z,98750.11
2022-08-31T03:06:54.261Z,98755.27
2022-08-31T03:09:26.203Z,98752.11
2022-08-31T03:11:58.201Z,98750.98
2022-08-31T03:14:30.319Z,98742.81
2022-08-31T03:17:02.786Z,98742.35
2022-08-31T03:19:34.892Z,98748.17
2022-08-31T03:22:07.986Z,98741.38
2022-08-31T03:24:40.236Z,98743.60
2022-08-31T03:27:12.354Z,98749.11
2022-08-31T03:29:44.694Z,98744.97
2022-08-31T03:32:18.902Z,98745.63
2022-08-31T03:34:57.897Z,98746.97
2022-08-31T03:37:30.241Z,98742.33
2022-08-31T03:40:05.343Z,98741.82
2022-08-31T03:42:38.315Z,98735.52
2022-08-31T03:45:12.266Z,98722.70
2022-08-31T03:47:45.733Z,98729.37
2022-08-31T03:50:19.539Z,98729.55
2022-08-31T03:52:59.200Z,98721.06
2022-08-31T03:55:33.736Z,98725.72
2022-08-31T03:58:05.991Z,98720.72
2022-08-31T04:00:39.819Z,98727.23
2022-08-31T04:03:14.369Z,98724.72
2022-08-31T04:06:07.463Z,98724.24
2022-08-31T04:08:57.289Z,98715.40
2022-08-31T04:11:46.941Z,98720.41
2022-08-31T04:14:23.457Z,98716.92
2022-08-31T04:17:06.102Z,98718.09
2022-08-31T04:19:41.628Z,98724.42
2022-08-31T04:22:21.472Z,98713.23
2022-08-31T04:24:55.542Z,98723.73
2022-08-31T04:27:27.772Z,98715.41
2022-08-31T04:30:00.049Z,98717.06
2022-08-31T04:32:34.802Z,98713.75
2022-08-31T04:35:08.725Z,98716.25
2022-08-31T04:37:46.395Z,98717.06
2022-08-31T04:40:16.885Z,98718.05
2022-08-31T04:42:50.598Z,98725.00
2022-08-31T04:45:24.932Z,98719.20
2022-08-31T04:47:57.292Z,98721.68
2022-08-31T04:50:29.490Z,98712.64
2022-08-31T04:53:12.980Z,98718.26
2022-08-31T04:55:45.770Z,98728.46
2022-08-31T04:58:19.684Z,98724.47
2022-08-31T05:00:53.716Z,98723.53
2022-08-31T05:03:40.725Z,98720.19
2022-08-31T05:06:19.315Z,98713.86
2022-08-31T05:08:58.604Z,98718.08
2022-08-31T05:11:31.465Z,98716.62
2022-08-31T05:14:07.005Z,98716.62
2022-08-31T05:16:42.658Z,98714.28
2022-08-31T05:19:15.147Z,98714.31
2022-08-31T05:21:47.641Z,98709.67
2022-08-31T05:24:23.790Z,98718.70
2022-08-31T05:26:57.793Z,98734.02
2022-08-31T05:29:30.961Z,98718.86
2022-08-31T05:32:04.996Z,98719.38
2022-08-31T05:34:37.328Z,98719.94
2022-08-31T05:37:09.595Z,98723.77
2022-08-31T05:39:41.874Z,98710.79
2022-08-31T05:42:16.952Z,98721.03
2022-08-31T05:44:52.189Z,98727.09
2022-08-31T05:47:24.630Z,98732.80
2022-08-31T05:49:57.373Z,98731.61
2022-08-31T05:52:29.932Z,98733.75
2022-08-31T05:55:02.316Z,98749.88
2022-08-31T05:57:34.310Z,98746.17
2022-08-31T06:00:07.491Z,98752.59
2022-08-31T06:02:42.407Z,98748.78
2022-08-31T06:05:16.594Z,98755.09
2022-08-31T06:07:51.004Z,98748.44
2022-08-31T06:10:25.456Z,98747.95
2022-08-31T06:12:57.721Z,98757.99
2022-08-31T06:15:30.091Z,98748.12
2022-08-31T06:18:02.746Z,98755.80
2022-08-31T06:20:37.624Z,98752.45
2022-08-31T06:23:10.673Z,98745.28
2022-08-31T06:25:44.475Z,98772.31
2022-08-31T06:28:16.716Z,98760.30
2022-08-31T06:30:55.264Z,98757.84
2022-08-31T06:33:24.861Z,98755.47
2022-08-31T06:36:16.485Z,98758.52
2022-08-31T06:38:59.538Z,98749.11
2022-08-31T06:41:37.060Z,98748.29
2022-08-31T06:44:16.729Z,98753.88
2022-08-31T06:46:59.937Z,98753.22
2022-08-31T06:49:33.720Z,98741.67
2022-08-31T06:52:06.515Z,98748.12
2022-08-31T06:54:40.415Z,98755.33
2022-08-31T06:57:30.610Z,98760.17
2022-08-31T07:00:21.607Z,98756.08
2022-08-31T07:03:26.973Z,98748.69
2022-08-31T07:05:59.064Z,98753.91
2022-08-31T07:08:31.937Z,98752.86
2022-08-31T07:11:05.154Z,98750.55
2022-08-31T07:13:38.017Z,98735.16
2022-08-31T07:16:13.382Z,98746.03
2022-08-31T07:18:47.189Z,98741.38
2022-08-31T07:21:22.633Z,98728.05
2022-08-31T07:23:56.950Z,98745.59
2022-08-31T07:26:36.301Z,98740.83
2022-08-31T07:29:10.057Z,98739.91
2022-08-31T07:31:49.121Z,98752.20
2022-08-31T07:34:26.980Z,98749.70
2022-08-31T07:37:30.939Z,98749.70
2022-08-31T07:40:20.931Z,98756.67
2022-08-31T07:42:54.832Z,98748.22
2022-08-31T07:45:30.213Z,98749.92
2022-08-31T07:48:02.309Z,98751.19
2022-08-31T07:50:37.441Z,98761.72
2022-08-31T07:53:22.495Z,98750.20
2022-08-31T07:56:00.449Z,98754.80
2022-08-31T07:58:42.186Z,98766.98
2022-08-31T08:01:16.281Z,98762.39
2022-08-31T08:03:50.900Z,98774.91
2022-08-31T08:06:40.704Z,98775.69
2022-08-31T08:09:24.436Z,98777.88
2022-08-31T08:12:01.003Z,98775.64
2022-08-31T08:14:38.373Z,98772.97
2022-08-31T08:17:12.696Z,98768.18
2022-08-31T08:19:46.612Z,98774.66
2022-08-31T08:22:30.801Z,98771.33
2022-08-31T08:24:58.928Z,98774.08
2022-08-31T08:27:33.117Z,98765.03
2022-08-31T08:30:21.839Z,98786.48
2022-08-31T08:32:54.600Z,98767.84
2022-08-31T08:35:28.155Z,98782.51
2022-08-31T08:38:04.490Z,98780.95
2022-08-31T08:40:41.952Z,98784.33
2022-08-31T08:43:18.471Z,98788.38
2022-08-31T08:45:54.256Z,98783.20
2022-08-31T08:48:31.041Z,98785.33
2022-08-31T08:51:05.190Z,98780.25
2022-08-31T08:53:42.206Z,98783.97
2022-08-31T08:56:32.409Z,98784.28
2022-08-31T08:58:49.584Z,98788.89
2022-08-31T09:01:27.373Z,98776.29
2022-08-31T09:04:20.834Z,98775.59
2022-08-31T09:07:17.952Z,98767.83
2022-08-31T09:10:05.108Z,98777.06
2022-08-31T09:12:49.233Z,98771.54
2022-08-31T09:15:46.223Z,98769.13
2022-08-31T09:18:47.447Z,98775.42
2022-08-31T09:21:32.885Z,98778.02
2022-08-31T09:24:17.138Z,98778.27
2022-08-31T09:27:07.525Z,98786.24
2022-08-31T09:29:43.628Z,98789.73
2022-08-31T09:32:20.494Z,98789.91
2022-08-31T09:35:02.558Z,98787.62
2022-08-31T09:37:49.476Z,98792.88
2022-08-31T09:40:27.212Z,98795.92
2022-08-31T09:43:13.784Z,98792.88
2022-08-31T09:45:51.424Z,98800.60
2022-08-31T09:48:45.932Z,98800.55
2022-08-31T09:51:33.891Z,98796.53
2022-08-31T09:54:41.020Z,98795.86
2022-08-31T09:57:12.801Z,98796.81
2022-08-31T09:59:52.000Z,98789.43
2022-08-31T10:02:31.565Z,98795.84
2022-08-31T10:05:07.355Z,98793.47
2022-08-31T10:07:51.493Z,98804.09
2022-08-31T10:10:31.766Z,98799.08
2022-08-31T10:13:22.140Z,98795.64
2022-08-31T10:16:11.217Z,98806.24
2022-08-31T10:18:52.372Z,98813.47
2022-08-31T10:21:50.190Z,98810.91
2022-08-31T10:24:32.682Z,98818.50
2022-08-31T10:27:23.573Z,98807.27
2022-08-31T10:30:01.326Z,98809.77
2022-08-31T10:32:48.788Z,98816.91
2022-08-31T10:35:24.164Z,98830.56
2022-08-31T10:38:20.081Z,98844.72
2022-08-31T10:40:54.835Z,98841.42
2022-08-31T10:43:46.275Z,98844.56
2022-08-31T10:46:19.239Z,98853.53
2022-08-31T10:48:54.639Z,98851.07
2022-08-31T10:51:35.680Z,98839.69
2022-08-31T10:54:39.328Z,98848.94
2022-08-31T10:57:31.420Z,98843.47
2022-08-31T11:00:04.990Z,98842.06
2022-08-31T11:02:55.666Z,98839.94
2022-08-31T11:05:33.628Z,98851.68
2022-08-31T11:08:24.198Z,98846.23
2022-08-31T11:10:59.589Z,98854.93
2022-08-31T11:13:54.070Z,98848.59
2022-08-31T11:16:44.039Z,98865.91
2022-08-31T11:19:29.096Z,98850.81
2022-08-31T11:22:07.843Z,98849.87
2022-08-31T11:24:51.919Z,98847.86
2022-08-31T11:27:27.426Z,98854.03
2022-08-31T11:30:08.991Z,98849.83
2022-08-31T11:32:47.356Z,98850.48
2022-08-31T11:35:39.197Z,98851.21
2022-08-31T11:38:54.790Z,98849.42
2022-08-31T11:41:43.284Z,98845.57
2022-08-31T11:44:34.218Z,98847.33
2022-08-31T11:47:15.657Z,98837.94
2022-08-31T11:49:50.523Z,98844.89
2022-08-31T11:52:32.890Z,98841.77
2022-08-31T11:55:22.893Z,98839.28
2022-08-31T11:58:07.801Z,98836.48
2022-08-31T12:00:52.095Z,98837.34
2022-08-31T12:03:39.156Z,98841.19
2022-08-31T12:06:14.500Z,98844.25
2022-08-31T12:08:56.254Z,98855.15
2022-08-31T12:11:40.964Z,98845.81
2022-08-31T12:14:16.994Z,98850.62
2022-08-31T12:17:03.284Z,98857.39
2022-08-31T12:20:02.871Z,98862.24
2022-08-31T12:23:30.680Z,98857.51
2022-08-31T12:26:31.215Z,98871.80
2022-08-31T12:29:25.418Z,98878.58
2022-08-31T12:32:12.379Z,98884.31
2022-08-31T12:35:19.348Z,98884.14
2022-08-31T12:38:05.363Z,98886.28
2022-08-31T12:40:55.411Z,98891.94
2022-08-31T12:43:39.567Z,98890.33
2022-08-31T12:46:41.985Z,98892.53
2022-08-31T12:49:45.784Z,98884.17
2022-08-31T12:52:44.732Z,98894.26
2022-08-31T12:55:31.935Z,98902.95
2022-08-31T12:58:25.222Z,98901.77
2022-08-31T13:01:09.346Z,98894.42
2022-08-31T13:03:44.795Z,98909.34
2022-08-31T13:06:19.799Z,98904.67
2022-08-31T13:08:56.201Z,98893.30
2022-08-31T13:11:40.716Z,98887.17
2022-08-31T13:14:20.991Z,98900.79
2022-08-31T13:17:08.460Z,98885.16
2022-08-31T13:19:43.148Z,98913.47
2022-08-31T13:22:17.315Z,98908.17
2022-08-31T13:24:51.527Z,98903.38
2022-08-31T13:27:28.738Z,98916.44
2022-08-31T13:30:04.386Z,98894.95
2022-08-31T13:32:39.823Z,98898.72
2022-08-31T13:35:15.543Z,98900.28
2022-08-31T13:37:52.311Z,98905.48
2022-08-31T13:40:26.963Z,98905.77
2022-08-31T13:43:00.424Z,98919.70
2022-08-31T13:45:35.503Z,98913.51
2022-08-31T13:48:17.126Z,98913.08
2022-08-31T13:50:54.299Z,98906.47
2022-08-31T13:53:46.264Z,98920.74
2022-08-31T13:56:42.578Z,98915.78
2022-08-31T13:59:24.192Z,98923.63
2022-08-31T14:02:08.325Z,98942.94
2022-08-31T14:04:49.217Z,98931.29
2022-08-31T14:07:24.698Z,98944.53
2022-08-31T14:10:26.452Z,98938.06
2022-08-31T14:13:14.470Z,98937.55
2022-08-31T14:15:53.503Z,98951.45
2022-08-31T14:18:39.259Z,98945.69
2022-08-31T14:21:21.954Z,98948.39
2022-08-31T14:24:03.181Z,98962.61
2022-08-31T14:26:38.509Z,98959.22
2022-08-31T14:29:13.949Z,98965.44
2022-08-31T14:31:53.660Z,98966.92
2022-08-31T14:34:34.060Z,98973.97
2022-08-31T14:37:10.919Z,98975.16
2022-08-31T14:39:49.720Z,98973.52
2022-08-31T14:42:35.019Z,98988.05
2022-08-31T14:45:10.321Z,98981.16
2022-08-31T14:47:46.240Z,98976.12
2022-08-31T14:50:22.718Z,98981.64
2022-08-31T14:52:58.553Z,98993.41
2022-08-31T14:55:30.870Z,98991.91
2022-08-31T14:58:07.947Z,99007.39
2022-08-31T15:00:51.100Z,99002.69
2022-08-31T15:03:22.091Z,99003.81
2022-08-31T15:05:54.712Z,99003.73
2022-08-31T15:08:38.110Z,99024.32
2022-08-31T15:11:04.153Z,99022.16
2022-08-31T15:13:38.041Z,99023.25
2022-08-31T15:16:13.712Z,99028.52
2022-08-31T15:18:46.605Z,99022.27
2022-08-31T15:21:18.696Z,99014.91
2022-08-31T15:23:54.201Z,99027.61
2022-08-31T15:26:26.442Z,99025.86
2022-08-31T15:28:59.713Z,99028.96
2022-08-31T15:31:32.034Z,99022.74
2022-08-31T15:34:09.931Z,99023.33
2022-08-31T15:36:39.488Z,99013.59
2022-08-31T15:39:11.662Z,99030.68
2022-08-31T15:41:46.012Z,99034.16
2022-08-31T15:44:19.759Z,99020.38
2022-08-31T15:47:09.463Z,99020.58
2022-08-31T15:49:43.376Z,99023.52
2022-08-31T15:52:16.342Z,99032.45
2022-08-31T15:54:50.767Z,99026.05
2022-08-31T15:57:23.287Z,99034.58
2022-08-31T15:59:55.886Z,99049.27
2022-08-31T16:02:30.175Z,99047.16
2022-08-31T16:05:02.893Z,99049.69
2022-08-31T16:07:55.842Z,99043.55
2022-08-31T16:10:28.510Z,99062.13
2022-08-31T16:13:02.506Z,99052.52
2022-08-31T16:15:34.820Z,99063.40
2022-08-31T16:18:07.520Z,99060.88
2022-08-31T16:20:39.783Z,99058.67
2022-08-31T16:23:14.227Z,99061.46
2022-08-31T16:25:49.314Z,99060.64
2022-08-31T16:28:22.131Z,99060.64
2022-08-31T16:30:54.816Z,99064.24
2022-08-31T16:33:26.791Z,99062.02
2022-08-31T16:35:59.030Z,99062.84
2022-08-31T16:38:31.500Z,99081.27
2022-08-31T16:41:06.555Z,99068.98
2022-08-31T16:43:40.353Z,99082.96
2022-08-31T16:46:37.297Z,99080.71
2022-08-31T16:49:05.850Z,99086.02
2022-08-31T16:51:39.020Z,99087.28
2022-08-31T16:54:13.688Z,99078.77
2022-08-31T16:56:52.054Z,99090.61
2022-08-31T16:59:21.225Z,99092.17
2022-08-31T17:01:56.306Z,99100.52
2022-08-31T17:04:51.075Z,99096.89
2022-08-31T17:07:02.781Z,99089.08
2022-08-31T17:09:35.044Z,99095.48
2022-08-31T17:12:11.881Z,99102.73
2022-08-31T17:14:48.534Z,99098.14
2022-08-31T17:17:26.558Z,99098.41
2022-08-31T17:20:00.821Z,99099.67
2022-08-31T17:22:33.994Z,99095.78
2022-08-31T17:25:08.282Z,99095.91
2022-08-31T17:27:40.297Z,99098.01
2022-08-31T17:30:12.880Z,99097.47
2022-08-31T17:32:47.719Z,99102.73
2022-08-31T17:35:20.426Z,99096.61
2022-08-31T17:37:52.860Z,99099.94
2022-08-31T17:40:25.906Z,99101.05
2022-08-31T17:43:00.045Z,99101.19
2022-08-31T17:45:32.791Z,99100.20
2022-08-31T17:48:05.226Z,99117.81
2022-08-31T17:50:39.359Z,99108.31
2022-08-31T17:53:12.160Z,99094.48
2022-08-31T17:55:44.431Z,99109.70
2022-08-31T17:58:16.852Z,99095.56
2022-08-31T18:00:49.801Z,99092.22
2022-08-31T18:03:22.689Z,99097.88
2022-08-31T18:05:55.342Z,99108.48
2022-08-31T18:08:27.374Z,99098.99
2022-08-31T18:10:59.732Z,99104.16
2022-08-31T18:13:32.006Z,99098.86
2022-08-31T18:16:05.923Z,99102.50
2022-08-31T18:18:38.476Z,99097.97
2022-08-31T18:21:10.769Z,99104.98
2022-08-31T18:23:43.088Z,99092.67
2022-08-31T18:26:23.973Z,99090.31
2022-08-31T18:28:57.435Z,99093.23
2022-08-31T18:31:31.415Z,99097.84
2022-08-31T18:34:06.619Z,99093.23
2022-08-31T18:36:40.384Z,99096.13
2022-08-31T18:39:25.972Z,99094.03
2022-08-31T18:42:09.801Z,99102.16
2022-08-31T18:44:59.384Z,99094.16
2022-08-31T18:47:33.187Z,99088.56
2022-08-31T18:50:06.144Z,99090.31
2022-08-31T18:52:40.421Z,99089.88
2022-08-31T18:55:15.517Z,99097.44
2022-08-31T18:57:48.800Z,99092.46
2022-08-31T19:00:21.787Z,99093.44
2022-08-31T19:02:54.223Z,99083.41
2022-08-31T19:05:26.770Z,99078.72
2022-08-31T19:08:00.697Z,99086.47
2022-08-31T19:10:34.459Z,99085.50
2022-08-31T19:13:07.850Z,99086.09
2022-08-31T19:15:41.183Z,99080.74
2022-08-31T19:18:13.258Z,99080.30
2022-08-31T19:20:46.117Z,99082.95
2022-08-31T19:23:20.215Z,99082.88
2022-08-31T19:25:52.207Z,99085.86
2022-08-31T19:28:27.600Z,99093.67
2022-08-31T19:31:00.183Z,99078.58
2022-08-31T19:33:34.141Z,99078.58
2022-08-31T19:36:06.987Z,99085.33
2022-08-31T19:38:40.243Z,99080.45
2022-08-31T19:41:24.294Z,99085.01
2022-08-31T19:44:07.594Z,99058.55
2022-08-31T19:46:33.015Z,99058.55
2022-08-31T19:49:06.766Z,99071.13
2022-08-31T19:51:41.225Z,99061.53
2022-08-31T19:54:12.611Z,99063.44
2022-08-31T19:56:44.841Z,99068.45
2022-08-31T19:59:20.116Z,99067.30
2022-08-31T20:01:54.519Z,99067.58
2022-08-31T20:04:29.980Z,99073.95
2022-08-31T20:07:04.147Z,99058.22
2022-08-31T20:09:36.542Z,99073.11
2022-08-31T20:12:09.177Z,99066.06
2022-08-31T20:14:41.233Z,99066.06
2022-08-31T20:17:14.830Z,99067.27
2022-08-31T20:19:49.607Z,99075.08
2022-08-31T20:22:23.235Z,99066.42
2022-08-31T20:24:57.968Z,99077.74
2022-08-31T20:27:31.053Z,99087.63
2022-08-31T20:30:03.191Z,99081.27
2022-08-31T20:32:38.161Z,99067.25
2022-08-31T20:35:10.585Z,99078.63
2022-08-31T20:37:42.584Z,99077.81
2022-08-31T20:40:16.274Z,99081.30
2022-08-31T20:42:50.126Z,99088.95
2022-08-31T20:45:23.054Z,99077.08
2022-08-31T20:48:12.523Z,99081.89
2022-08-31T20:50:48.715Z,99085.95
2022-08-31T20:53:38.990Z,99085.46
2022-08-31T20:55:53.472Z,99069.53
2022-08-31T20:58:25.557Z,99078.52
2022-08-31T21:00:57.797Z,99061.70
2022-08-31T21:03:29.729Z,99057.63
2022-08-31T21:06:11.699Z,99064.25
2022-08-31T21:08:43.840Z,99060.03
2022-08-31T21:11:18.187Z,99063.02
2022-08-31T21:13:50.793Z,99065.92
2022-08-31T21:16:24.819Z,99055.58
2022-08-31T21:18:57.464Z,99058.33
2022-08-31T21:21:32.497Z,99058.80
2022-08-31T21:24:06.212Z,99058.22
2022-08-31T21:26:40.694Z,99043.09
2022-08-31T21:29:15.872Z,99035.90
2022-08-31T21:31:54.661Z,99034.34
2022-08-31T21:34:22.699Z,99031.93
2022-08-31T21:36:55.714Z,99024.76
2022-08-31T21:39:27.716Z,99027.50
2022-08-31T21:42:00.022Z,99027.41
2022-08-31T21:44:32.333Z,99030.64
2022-08-31T21:47:05.189Z,99028.25
2022-08-31T21:49:39.800Z,99037.03
2022-08-31T21:52:13.127Z,99039.76
2022-08-31T21:54:46.456Z,99032.20
2022-08-31T21:57:18.708Z,99033.63
2022-08-31T21:59:51.099Z,99030.88
2022-08-31T22:02:23.481Z,99034.95
2022-08-31T22:04:55.545Z,99040.58
2022-08-31T22:07:27.521Z,99035.07
2022-08-31T22:09:59.875Z,99039.27
2022-08-31T22:12:33.355Z,99031.95
2022-08-31T22:15:08.059Z,99030.25
2022-08-31T22:18:01.999Z,99023.31
2022-08-31T22:20:15.894Z,99027.49
2022-08-31T22:22:48.069Z,99035.33
2022-08-31T22:25:20.427Z,99041.58
2022-08-31T22:27:52.812Z,99036.05
2022-08-31T22:30:26.594Z,99036.77
2022-08-31T22:32:58.673Z,99035.08
2022-08-31T22:35:30.657Z,99020.78
2022-08-31T22:38:02.802Z,99031.81
2022-08-31T22:40:36.474Z,99032.75
2022-08-31T22:43:09.539Z,99040.87
2022-08-31T22:45:48.215Z,99029.84
2022-08-31T22:48:18.569Z,99025.77
2022-08-31T22:50:50.619Z,99030.44
2022-08-31T22:53:22.983Z,99030.77
2022-08-31T22:55:55.246Z,99034.78
2022-08-31T22:58:27.335Z,99040.14
2022-08-31T23:00:59.559Z,99025.73
2022-08-31T23:03:31.839Z,99035.88
2022-08-31T23:06:03.904Z,99023.89
2022-08-31T23:08:36.034Z,99034.04
2022-08-31T23:11:08.872Z,99042.16
2022-08-31T23:13:52.808Z,99032.37
2022-08-31T23:16:27.948Z,99043.89
2022-08-31T23:19:03.151Z,99045.07
2022-08-31T23:21:35.598Z,99040.19
2022-08-31T23:24:08.024Z,99041.75
2022-08-31T23:26:40.813Z,99044.17
2022-08-31T23:29:14.237Z,99042.71
2022-08-31T23:31:48.731Z,99048.45
2022-08-31T23:34:22.193Z,99051.80
2022-08-31T23:36:55.787Z,99049.05
2022-08-31T23:39:27.797Z,99053.25
2022-08-31T23:42:00.339Z,99059.27
2022-08-31T23:44:33.516Z,99048.73
2022-08-31T23:47:06.023Z,99059.27
2022-08-31T23:49:38.708Z,99055.45
2022-08-31T23:52:12.197Z,99057.73
2022-08-31T23:54:44.165Z,99060.03
2022-08-31T23:57:32.264Z,99065.69
2022-08-31T23:59:56.018Z,99064.13
